Dyer, Nevada
Current Conditions -  °F | °C
As of 8:56 PM on Thursday 30 Oct 2014 (Local Time) from KBIH Reporting Station
Clear Clear  
Wind Chill: 67°   Ceiling: Unl
Heat Index: 67°   Visibility: 10mi
Dew Point: 17°   Wind: 16mph
Humidity: 15%   Direction: 150°SSE
Pressure: 29.97"   Gusts: 26mph
Location:  37.68°N, 118.08°W
Report Text: KBIH 310356Z AUTO 15014G23KT 10SM CLR 19/M08 A2997 RMK AO2 PK WND 15027/0311 SLP116 T01941083
Loading
Personal Weather Stations






























Interactive Weather Map
Tropical Storm Tracking
New forecast layout! Learn more

10-Day Weather Forecast

Advertisements
Track Severe Weather on mobile